Time;durP1;ratioP1;P1;durP2;ratioP2;P2;SDS_P1;SDS_P2;PMS_P1;PMS_P2;Temp;Humidity;BMP_temperature;BMP_pressure;BME280_temperature;BME280_humidity;BME280_pressure;Samples;Min_cycle;Max_cycle;Signal;HPM_P1;HPM_P2
2021/09/30 00:02:08;;;;;;;2.63;1.20;;;;;;;15.97;44.67;102024.88;4991727;28;20050;-71
2021/09/30 00:04:35;;;;;;;2.75;1.13;;;;;;;15.94;44.82;102017.75;4987033;28;20133;-71
2021/09/30 00:07:07;;;;;;;4.70;1.10;;;;;;;15.95;44.83;102016.75;4995115;28;20085;-71
2021/09/30 00:09:35;;;;;;;1.77;0.90;;;;;;;15.96;45.26;102029.47;4992986;28;20089;-71
2021/09/30 00:12:13;;;;;;;2.05;1.08;;;;;;;15.95;44.90;102024.09;4976792;28;20541;-71
2021/09/30 00:34:05;;;;;;;2.20;1.02;;;;;;;15.91;45.17;102063.63;4992922;28;20093;-71
2021/09/30 00:42:08;;;;;;;1.67;1.10;;;;;;;15.93;45.29;102056.19;4988225;28;20125;-71
2021/09/30 00:47:39;;;;;;;1.60;0.98;;;;;;;15.91;45.19;102052.66;4990807;28;20097;-72
2021/09/30 00:50:50;;;;;;;2.72;1.20;;;;;;;15.88;45.08;102063.84;4993160;28;20393;-71
2021/09/30 02:22:45;;;;;;;2.55;1.27;;;;;;;15.65;45.03;102101.03;4992536;28;20077;-72
2021/09/30 02:58:56;;;;;;;2.35;0.93;;;;;;;15.35;45.42;102111.28;4990019;28;20054;-71
2021/09/30 03:01:28;;;;;;;3.58;1.50;;;;;;;15.36;45.56;102105.72;4991594;28;20547;-71
2021/09/30 03:03:57;;;;;;;2.35;1.08;;;;;;;15.33;45.13;102114.13;4990396;28;20515;-71
2021/09/30 03:06:25;;;;;;;2.85;1.30;;;;;;;15.35;45.32;102119.50;4990922;28;20575;-71
2021/09/30 03:08:54;;;;;;;4.07;1.23;;;;;;;15.34;45.21;102115.88;4991075;28;20050;-71
2021/09/30 03:11:23;;;;;;;3.47;1.00;;;;;;;15.32;45.75;102126.03;4990862;28;20501;-71
2021/09/30 03:13:52;;;;;;;4.93;1.40;;;;;;;15.33;45.56;102119.59;4991507;28;20039;-71
2021/09/30 03:19:32;;;;;;;3.58;1.13;;;;;;;15.31;45.72;102128.91;4990717;28;20520;-71
2021/09/30 03:24:40;;;;;;;4.53;1.50;;;;;;;15.30;45.58;102130.75;4991025;28;20133;-71
2021/09/30 03:27:07;;;;;;;3.28;1.25;;;;;;;15.30;45.65;102129.88;4990792;28;20132;-71
2021/09/30 03:29:34;;;;;;;5.28;1.50;;;;;;;15.29;45.46;102131.75;4990572;28;20076;-71
2021/09/30 03:32:02;;;;;;;2.80;1.30;;;;;;;15.30;45.30;102136.22;4990483;28;20108;-71
2021/09/30 03:34:29;;;;;;;3.97;1.30;;;;;;;15.29;45.56;102126.25;4989404;28;20038;-71
2021/09/30 03:36:56;;;;;;;4.32;1.50;;;;;;;15.29;45.54;102133.59;4974820;28;20154;-71
2021/09/30 03:39:23;;;;;;;3.67;1.30;;;;;;;15.28;45.42;102135.44;4989968;28;20362;-71
2021/09/30 03:41:51;;;;;;;3.72;1.20;;;;;;;15.29;45.58;102139.06;4983818;28;20077;-71
2021/09/30 03:44:18;;;;;;;3.72;1.13;;;;;;;15.27;45.63;102152.84;4989874;28;20125;-71
2021/09/30 03:46:49;;;;;;;2.70;1.20;;;;;;;15.24;45.16;102145.69;4991697;28;20077;-71
2021/09/30 03:49:30;;;;;;;2.60;1.40;;;;;;;15.25;45.48;102146.59;4990318;28;20137;-71
2021/09/30 03:52:12;;;;;;;3.72;1.20;;;;;;;15.23;45.72;102146.69;4993250;28;20077;-71
2021/09/30 03:57:21;;;;;;;2.42;1.20;;;;;;;15.22;45.69;102155.91;4990916;28;20050;-71
2021/09/30 03:59:48;;;;;;;2.53;1.20;;;;;;;15.23;45.65;102152.16;4993373;28;20065;-71
2021/09/30 04:02:15;;;;;;;2.80;1.27;;;;;;;15.23;45.29;102148.56;4991055;28;20077;-71
2021/09/30 04:04:43;;;;;;;3.45;1.33;;;;;;;15.24;45.59;102153.03;4990531;28;20130;-71
2021/09/30 04:07:09;;;;;;;4.53;1.33;;;;;;;15.24;45.62;102153.03;4989875;28;20563;-71
2021/09/30 04:09:38;;;;;;;3.45;1.20;;;;;;;15.27;45.29;102151.97;4989002;28;20528;-71
2021/09/30 04:12:09;;;;;;;2.72;1.10;;;;;;;15.24;45.58;102153.03;4990887;28;20082;-71
2021/09/30 04:14:35;;;;;;;3.58;1.23;;;;;;;15.22;45.30;102155.00;4988961;28;20069;-71
2021/09/30 04:17:03;;;;;;;3.45;1.23;;;;;;;15.22;45.10;102153.16;4990176;28;20464;-71
2021/09/30 04:19:30;;;;;;;3.65;1.70;;;;;;;15.22;45.74;102161.38;4977277;28;20137;-71
2021/09/30 04:21:57;;;;;;;3.72;1.38;;;;;;;15.22;45.13;102166.84;4990930;28;20138;-71
2021/09/30 04:24:24;;;;;;;4.70;1.50;;;;;;;15.21;45.46;102162.34;4988039;28;20082;-71
2021/09/30 04:26:52;;;;;;;3.05;1.30;;;;;;;15.21;45.75;102161.47;4990430;28;20141;-71
2021/09/30 04:29:19;;;;;;;3.33;1.20;;;;;;;15.19;45.36;102158.81;4990330;28;20089;-71
2021/09/30 04:31:46;;;;;;;3.08;1.40;;;;;;;15.18;45.42;102162.53;4989659;28;20074;-71
2021/09/30 04:34:14;;;;;;;2.75;1.23;;;;;;;15.19;45.41;102172.50;4990598;28;20046;-71
2021/09/30 04:36:40;;;;;;;6.00;1.77;;;;;;;15.18;45.18;102170.75;4990440;28;20051;-71
2021/09/30 04:39:07;;;;;;;6.25;1.60;;;;;;;15.18;45.60;102173.47;4989765;28;20571;-71
2021/09/30 04:41:34;;;;;;;2.65;1.17;;;;;;;15.18;45.13;102181.69;4973267;28;20078;-71
2021/09/30 04:44:01;;;;;;;5.07;1.90;;;;;;;15.17;45.35;102182.66;4989581;28;20515;-71
2021/09/30 04:46:27;;;;;;;5.45;1.48;;;;;;;15.17;45.40;102185.38;4987393;28;20086;-71
2021/09/30 04:48:54;;;;;;;3.58;1.50;;;;;;;15.17;45.41;102179.03;4987943;28;20501;-71
2021/09/30 04:51:21;;;;;;;5.00;1.23;;;;;;;15.16;45.41;102183.63;4974176;28;20082;-71
2021/09/30 04:53:47;;;;;;;3.50;1.20;;;;;;;15.15;45.41;102184.59;4993640;28;20100;-71
2021/09/30 04:56:15;;;;;;;3.38;1.25;;;;;;;15.15;45.15;102186.50;4993423;28;20121;-71
2021/09/30 04:58:42;;;;;;;3.85;1.35;;;;;;;15.14;45.43;102192.94;4975715;28;20096;-74
2021/09/30 05:01:09;;;;;;;3.22;1.27;;;;;;;15.13;45.56;102189.31;4992531;28;20513;-71
2021/09/30 05:03:36;;;;;;;2.70;1.10;;;;;;;15.12;45.57;102179.34;4993529;28;20051;-71
2021/09/30 05:06:03;;;;;;;4.75;1.30;;;;;;;15.12;44.97;102184.81;4992335;28;20489;-71
2021/09/30 05:08:33;;;;;;;3.53;1.40;;;;;;;15.13;45.32;102182.97;4999392;28;20046;-70
2021/09/30 05:11:03;;;;;;;3.27;1.27;;;;;;;15.10;45.42;102192.25;4992537;28;20145;-71
2021/09/30 05:14:03;;;;;;;3.55;1.40;;;;;;;15.10;45.29;102185.88;4977993;28;20104;-71
2021/09/30 05:16:22;;;;;;;3.90;1.20;;;;;;;15.08;45.16;102193.31;4996556;28;20046;-72
2021/09/30 05:18:51;;;;;;;2.85;1.30;;;;;;;15.09;45.48;102197.81;4980804;28;20042;-72
2021/09/30 05:21:18;;;;;;;3.03;1.35;;;;;;;15.07;44.98;102200.63;4977829;28;20074;-71
2021/09/30 05:23:44;;;;;;;4.13;1.23;;;;;;;15.06;45.34;102207.09;4991714;28;20046;-71
2021/09/30 05:26:11;;;;;;;4.55;1.70;;;;;;;15.06;45.07;102203.50;4992638;28;20537;-71
2021/09/30 05:28:38;;;;;;;3.70;1.48;;;;;;;15.04;45.34;102198.13;4990179;28;20129;-71
2021/09/30 05:31:06;;;;;;;4.22;1.35;;;;;;;15.03;45.12;102201.81;4977624;28;20084;-71
2021/09/30 05:33:33;;;;;;;3.10;1.30;;;;;;;15.01;45.28;102200.16;4967617;28;20046;-71
2021/09/30 05:35:59;;;;;;;2.47;1.05;;;;;;;15.01;45.28;102200.16;4988851;28;20149;-71
2021/09/30 05:38:26;;;;;;;4.30;1.38;;;;;;;15.00;45.50;102212.06;4989707;28;20137;-71
2021/09/30 05:40:54;;;;;;;3.53;1.58;;;;;;;14.98;45.08;102201.25;4997447;28;20165;-71
2021/09/30 05:43:28;;;;;;;3.72;1.40;;;;;;;14.99;45.51;102210.34;4973086;28;20054;-71
2021/09/30 05:46:12;;;;;;;3.72;1.40;;;;;;;15.01;45.13;102217.44;4991364;28;20074;-71
2021/09/30 05:48:42;;;;;;;3.83;1.40;;;;;;;14.97;45.42;102212.28;4992705;28;20074;-71
2021/09/30 05:51:08;;;;;;;2.92;1.40;;;;;;;14.97;45.50;102213.16;4977948;28;20133;-71
2021/09/30 05:53:35;;;;;;;3.45;1.50;;;;;;;14.99;45.56;102218.53;4997362;28;20137;-70
2021/09/30 05:56:02;;;;;;;4.35;1.50;;;;;;;14.99;45.56;102224.00;4992037;28;20133;-70
2021/09/30 05:58:29;;;;;;;4.05;1.60;;;;;;;14.99;45.32;102226.75;4996370;28;20065;-71
2021/09/30 06:01:44;;;;;;;3.28;1.52;;;;;;;14.99;45.50;102221.28;4988876;28;20137;-71
2021/09/30 06:14:38;;;;;;;3.35;1.50;;;;;;;14.99;45.52;102221.28;4990961;28;20165;-71
2021/09/30 06:17:05;;;;;;;3.15;1.67;;;;;;;15.00;45.73;102220.28;4989655;28;20045;-71
2021/09/30 06:19:38;;;;;;;3.40;1.67;;;;;;;15.02;45.59;102224.69;4970529;28;20306;-71
2021/09/30 06:22:11;;;;;;;3.70;1.60;;;;;;;14.99;45.58;102224.84;4973382;28;20516;-71
2021/09/30 06:24:38;;;;;;;3.38;1.80;;;;;;;15.01;45.75;102224.78;4967762;28;20085;-71
2021/09/30 06:27:24;;;;;;;4.85;1.70;;;;;;;15.00;45.43;102220.28;4989597;28;20513;-72
2021/09/30 06:30:07;;;;;;;4.53;1.92;;;;;;;15.04;45.73;102220.00;4990844;28;20066;-73
2021/09/30 06:32:34;;;;;;;4.97;1.52;;;;;;;14.99;46.05;102219.38;4959517;28;20113;-72
2021/09/30 06:35:02;;;;;;;3.25;1.58;;;;;;;15.02;45.67;102219.22;4954127;28;20497;-72
2021/09/30 06:37:29;;;;;;;2.90;1.70;;;;;;;15.04;45.71;102227.31;4987995;28;20698;-72
2021/09/30 06:39:55;;;;;;;4.35;1.70;;;;;;;15.06;45.81;102225.38;4995126;28;20092;-72
2021/09/30 06:42:22;;;;;;;3.58;1.80;;;;;;;15.07;45.71;102227.13;4989756;28;20165;-72
2021/09/30 06:44:50;;;;;;;4.40;1.50;;;;;;;15.10;45.58;102230.53;4998854;28;20125;-74
2021/09/30 06:47:16;;;;;;;3.08;1.55;;;;;;;15.11;46.17;102232.31;4990487;28;20090;-73
2021/09/30 06:49:43;;;;;;;3.92;1.90;;;;;;;15.13;45.70;102233.09;4987184;28;21347;-71
2021/09/30 06:52:10;;;;;;;4.18;1.70;;;;;;;15.15;46.23;102230.25;4991843;28;20532;-71
2021/09/30 06:54:37;;;;;;;4.47;1.80;;;;;;;15.17;45.68;102239.22;4988876;28;20567;-73
2021/09/30 06:57:04;;;;;;;4.45;1.98;;;;;;;15.19;45.93;102240.00;4969883;28;20377;-73
2021/09/30 06:59:36;;;;;;;4.35;1.70;;;;;;;15.20;46.00;102236.31;4986145;28;20133;-73
2021/09/30 07:02:07;;;;;;;3.28;1.67;;;;;;;15.20;46.08;102239.03;4978168;28;20060;-74
2021/09/30 07:04:36;;;;;;;3.72;1.73;;;;;;;15.24;45.78;102248.78;4973474;28;20038;-73
2021/09/30 07:07:03;;;;;;;3.80;1.83;;;;;;;15.24;45.89;102237.84;4988388;28;20057;-72
2021/09/30 07:09:30;;;;;;;3.95;1.77;;;;;;;15.27;46.02;102236.78;4990272;28;20076;-72
2021/09/30 07:11:59;;;;;;;4.53;1.80;;;;;;;15.30;46.09;102234.75;4971800;28;20060;-72
2021/09/30 07:14:27;;;;;;;4.43;1.70;;;;;;;15.30;46.07;102231.13;4984489;28;20130;-73
2021/09/30 07:17:03;;;;;;;7.05;1.83;;;;;;;15.33;46.01;102229.06;4973420;28;20539;-71
2021/09/30 07:19:39;;;;;;;4.30;1.75;;;;;;;15.29;45.89;102240.31;4963390;28;20420;-71
2021/09/30 07:22:07;;;;;;;3.85;1.55;;;;;;;15.33;45.51;102250.06;4974820;28;20555;-72
2021/09/30 07:24:36;;;;;;;5.15;1.65;;;;;;;15.32;46.04;102251.06;4987025;28;20629;-71
2021/09/30 07:27:07;;;;;;;4.40;1.50;;;;;;;15.35;45.82;102256.31;4984160;28;20058;-71
2021/09/30 07:29:34;;;;;;;2.95;1.50;;;;;;;15.32;45.88;102254.66;4989176;28;20617;-72
2021/09/30 07:32:02;;;;;;;3.42;1.30;;;;;;;15.32;46.04;102249.19;4970407;28;20137;-71
2021/09/30 07:34:30;;;;;;;3.55;1.40;;;;;;;15.33;45.71;102250.06;4968305;28;20945;-72
2021/09/30 07:36:56;;;;;;;3.20;1.17;;;;;;;15.31;45.75;102252.94;4988538;28;20054;-72
2021/09/30 07:39:23;;;;;;;4.13;1.50;;;;;;;15.30;46.22;102253.91;4986632;28;20096;-72
2021/09/30 07:41:50;;;;;;;2.20;1.38;;;;;;;15.33;46.05;102244.59;4990163;28;20047;-72
2021/09/30 07:44:17;;;;;;;4.80;1.63;;;;;;;15.34;45.87;102249.09;4973559;28;20062;-72
2021/09/30 07:46:45;;;;;;;3.10;1.30;;;;;;;15.36;46.32;102252.59;4986076;28;20174;-72
2021/09/30 07:49:15;;;;;;;3.40;1.30;;;;;;;15.36;46.06;102248.03;4989522;28;20050;-73
2021/09/30 07:51:42;;;;;;;3.95;1.45;;;;;;;15.38;45.83;102247.94;4989569;28;20081;-72
2021/09/30 07:54:09;;;;;;;4.35;1.45;;;;;;;15.41;45.90;102254.06;4995391;28;20401;-72
2021/09/30 07:56:38;;;;;;;6.22;1.50;;;;;;;15.43;46.02;102243.03;4986938;28;20050;-71
2021/09/30 07:59:05;;;;;;;5.75;1.45;;;;;;;15.45;45.93;102246.53;4987976;28;20061;-71
2021/09/30 08:01:31;;;;;;;3.90;1.60;;;;;;;15.48;46.22;102243.63;4990851;28;20474;-72
2021/09/30 08:03:59;;;;;;;2.80;1.25;;;;;;;15.50;46.22;102245.25;4989592;28;20054;-72
2021/09/30 08:06:26;;;;;;;2.92;1.33;;;;;;;15.52;46.21;102256.09;4989418;28;20046;-72
2021/09/30 08:08:54;;;;;;;3.10;1.35;;;;;;;15.57;46.38;102256.72;4981447;28;20477;-72
2021/09/30 08:11:23;;;;;;;3.67;1.50;;;;;;;15.60;45.92;102262.00;4973168;28;20453;-72
2021/09/30 08:13:50;;;;;;;4.05;1.15;;;;;;;15.63;46.04;102253.59;4989283;28;20043;-72
2021/09/30 08:16:19;;;;;;;2.55;1.08;;;;;;;15.67;46.07;102254.25;4990236;28;20104;-72
2021/09/30 08:18:47;;;;;;;4.00;1.40;;;;;;;15.71;45.97;102258.56;4983783;28;20405;-72
2021/09/30 08:21:15;;;;;;;2.90;1.20;;;;;;;15.74;46.10;102252.84;4970764;28;20054;-72
2021/09/30 08:23:42;;;;;;;3.63;1.35;;;;;;;15.79;46.20;102256.19;4975821;28;20055;-71
2021/09/30 08:26:09;;;;;;;2.88;1.30;;;;;;;15.81;46.28;102255.09;4974531;28;20046;-72
2021/09/30 08:28:36;;;;;;;2.63;1.08;;;;;;;15.84;46.08;102252.16;4993347;28;20069;-71
2021/09/30 08:31:05;;;;;;;3.65;1.35;;;;;;;15.89;45.67;102260.97;4993655;28;20137;-72
2021/09/30 08:33:39;;;;;;;4.53;1.38;;;;;;;15.93;46.26;102270.72;4992090;28;20050;-72
2021/09/30 08:36:09;;;;;;;3.30;1.60;;;;;;;15.99;45.98;102262.06;4991341;28;20105;-71
2021/09/30 08:38:36;;;;;;;3.00;1.30;;;;;;;16.02;46.14;102266.47;4992603;28;20097;-71
2021/09/30 08:41:03;;;;;;;3.22;1.30;;;;;;;16.08;46.19;102265.19;4992622;28;20054;-72
2021/09/30 08:43:30;;;;;;;2.80;1.20;;;;;;;16.11;46.06;102268.59;4988058;28;20133;-70
2021/09/30 08:45:57;;;;;;;3.78;1.30;;;;;;;16.15;46.38;102272.88;4997592;28;20054;-71
2021/09/30 08:48:25;;;;;;;4.55;1.20;;;;;;;16.20;46.26;102267.97;4985622;28;20050;-71
2021/09/30 08:50:53;;;;;;;5.75;1.30;;;;;;;16.26;45.84;102272.16;4975747;28;20563;-71
2021/09/30 08:53:20;;;;;;;3.65;1.40;;;;;;;16.33;46.02;102270.75;4992107;28;20059;-71
2021/09/30 08:55:47;;;;;;;5.78;1.23;;;;;;;16.38;45.75;102265.84;4991041;28;20054;-71
2021/09/30 08:58:13;;;;;;;2.50;0.90;;;;;;;16.43;46.09;102266.41;4992226;28;20493;-72
2021/09/30 09:00:45;;;;;;;3.55;1.23;;;;;;;16.52;45.96;102273.13;4995632;28;20050;-71
2021/09/30 09:03:12;;;;;;;2.88;1.20;;;;;;;16.56;46.12;102272.78;4991613;28;20054;-71
2021/09/30 09:05:40;;;;;;;6.55;1.45;;;;;;;16.64;45.89;102269.53;4992939;28;20065;-71
2021/09/30 09:08:08;;;;;;;4.30;1.35;;;;;;;16.70;45.99;102267.28;4989625;28;20062;-71
2021/09/30 09:10:40;;;;;;;4.72;1.27;;;;;;;16.79;45.85;102264.88;4976225;28;20125;-71
2021/09/30 09:13:16;;;;;;;3.33;1.17;;;;;;;16.88;45.65;102269.69;4993234;28;20058;-70
2021/09/30 09:15:50;;;;;;;2.05;0.90;;;;;;;16.94;45.99;102261.91;4976751;28;20449;-70
2021/09/30 09:18:33;;;;;;;6.28;1.17;;;;;;;17.01;45.66;102260.47;4976291;28;20101;-70
2021/09/30 09:21:15;;;;;;;4.20;1.13;;;;;;;17.09;45.30;102270.91;4992864;28;20141;-71
2021/09/30 09:23:48;;;;;;;3.97;1.20;;;;;;;17.16;45.53;102276.81;4991648;28;20165;-71
2021/09/30 09:26:16;;;;;;;4.55;1.17;;;;;;;17.22;45.22;102274.50;4991578;28;20074;-72
2021/09/30 09:29:04;;;;;;;3.88;1.30;;;;;;;17.32;44.55;102275.59;4994743;28;20081;-72
2021/09/30 09:31:33;;;;;;;4.18;1.30;;;;;;;17.40;45.15;102278.66;4995673;28;20141;-71
2021/09/30 09:34:22;;;;;;;2.00;1.00;;;;;;;17.49;44.31;102271.63;4992298;28;20108;-72
2021/09/30 09:36:51;;;;;;;4.65;1.27;;;;;;;17.58;44.92;102270.94;4993645;28;20133;-71
2021/09/30 09:39:35;;;;;;;2.63;1.27;;;;;;;17.69;43.94;102272.94;4991388;28;20050;-71
2021/09/30 09:42:26;;;;;;;4.85;1.00;;;;;;;17.77;43.98;102265.00;4990477;28;20059;-71
2021/09/30 09:44:54;;;;;;;3.17;1.10;;;;;;;17.86;45.00;102269.81;4979997;28;20046;-72
2021/09/30 09:47:26;;;;;;;2.67;0.80;;;;;;;17.99;44.32;102258.75;4991992;28;20050;-72
2021/09/30 09:50:25;;;;;;;1.83;0.90;;;;;;;18.03;44.28;102257.56;4994184;28;20074;-71
2021/09/30 09:53:00;;;;;;;4.97;1.20;;;;;;;18.23;43.80;102254.16;4961324;28;20078;-72
2021/09/30 09:55:29;;;;;;;2.38;0.82;;;;;;;18.34;44.51;102256.06;4992030;28;20054;-72
2021/09/30 09:58:10;;;;;;;3.58;1.00;;;;;;;18.48;43.65;102253.13;4987924;28;20042;-71
2021/09/30 10:00:40;;;;;;;3.55;0.98;;;;;;;18.60;44.00;102250.34;4976361;28;20131;-72
2021/09/30 10:03:30;;;;;;;4.28;1.10;;;;;;;18.76;42.89;102255.50;4982497;28;20109;-72
2021/09/30 10:05:58;;;;;;;3.17;1.02;;;;;;;18.89;43.62;102252.63;4993199;28;20134;-72
2021/09/30 10:08:25;;;;;;;3.17;1.00;;;;;;;19.00;43.36;102252.66;4992200;28;20081;-72
2021/09/30 10:10:54;;;;;;;2.92;1.17;;;;;;;19.13;42.92;102247.91;4992460;28;20125;-72
2021/09/30 10:13:24;;;;;;;4.68;1.42;;;;;;;19.25;42.39;102251.56;4993069;28;20081;-72
2021/09/30 10:15:56;;;;;;;3.60;1.17;;;;;;;19.33;41.67;102249.06;4990662;28;20432;-72
2021/09/30 10:18:24;;;;;;;1.80;0.80;;;;;;;19.41;41.17;102241.06;4992218;28;20093;-72
2021/09/30 10:20:55;;;;;;;2.97;0.85;;;;;;;19.50;41.11;102248.59;4991649;28;20050;-72
2021/09/30 10:23:28;;;;;;;3.67;1.10;;;;;;;19.58;40.24;102232.31;4991833;28;20054;-72
2021/09/30 10:25:56;;;;;;;;;;;;;;;19.35;41.69;102236.91;4982893;28;20105;-72
2021/09/30 10:28:24;;;;;;;3.72;0.75;;;;;;;19.65;41.11;102233.53;4974827;28;19922;-71
2021/09/30 10:30:54;;;;;;;3.03;0.90;;;;;;;19.77;39.62;102237.13;4993600;28;20085;-71
2021/09/30 10:33:41;;;;;;;2.97;0.80;;;;;;;19.80;39.80;102230.50;4991714;28;20420;-71
2021/09/30 10:36:31;;;;;;;2.47;0.80;;;;;;;19.83;38.79;102239.41;4973634;28;20437;-71
2021/09/30 10:39:17;;;;;;;4.07;0.90;;;;;;;19.86;38.77;102229.97;4981513;28;20050;-71
2021/09/30 10:41:45;;;;;;;2.45;1.00;;;;;;;19.87;38.78;102240.88;4992538;28;20050;-71
2021/09/30 10:44:21;;;;;;;3.70;0.90;;;;;;;19.93;39.21;102234.00;4974197;28;20062;-71
2021/09/30 10:46:54;;;;;;;3.22;0.85;;;;;;;19.96;37.89;102242.00;4991169;28;20449;-72
2021/09/30 10:49:28;;;;;;;1.85;0.80;;;;;;;19.97;37.63;102233.59;4990260;28;20097;-71
2021/09/30 10:52:13;;;;;;;1.75;0.70;;;;;;;19.95;37.70;102241.09;4985110;28;20046;-72
2021/09/30 10:54:49;;;;;;;4.25;0.80;;;;;;;19.96;38.29;102234.59;4973768;28;20042;-72
2021/09/30 10:57:32;;;;;;;3.92;1.10;;;;;;;20.01;36.89;102225.94;4989575;28;20050;-72
2021/09/30 11:00:00;;;;;;;4.25;0.90;;;;;;;20.01;38.03;102224.03;4975503;28;20050;-73
2021/09/30 11:03:10;;;;;;;2.03;0.80;;;;;;;20.05;37.67;102230.19;4990517;28;20046;-72
2021/09/30 11:05:41;;;;;;;3.88;1.00;;;;;;;20.09;38.22;102218.75;4972202;28;20062;-72
2021/09/30 11:08:19;;;;;;;1.45;0.70;;;;;;;20.13;36.67;102227.66;4990838;28;20082;-72
2021/09/30 11:11:07;;;;;;;2.65;0.90;;;;;;;20.16;37.50;102224.63;4983614;28;20089;-73
2021/09/30 11:14:07;;;;;;;2.97;0.90;;;;;;;20.16;37.66;102219.13;4990785;28;20046;-72
2021/09/30 11:16:40;;;;;;;2.20;1.05;;;;;;;20.22;37.14;102213.06;4983807;28;20046;-72
2021/09/30 11:19:26;;;;;;;2.60;0.77;;;;;;;20.26;36.89;102198.00;4989615;28;20050;-72
2021/09/30 11:21:53;;;;;;;2.97;0.93;;;;;;;20.29;37.04;102203.25;4989825;28;20134;-72
2021/09/30 11:24:23;;;;;;;2.60;0.73;;;;;;;20.39;37.03;102203.38;4987522;28;20676;-72
2021/09/30 11:26:53;;;;;;;2.03;0.90;;;;;;;20.41;37.20;102191.22;4979844;28;20050;-72
2021/09/30 11:29:24;;;;;;;3.28;0.85;;;;;;;20.50;37.11;102187.66;4990023;28;20105;-71
2021/09/30 11:31:58;;;;;;;4.07;0.90;;;;;;;20.60;36.55;102195.09;4988201;28;20425;-71
2021/09/30 11:34:29;;;;;;;1.15;0.75;;;;;;;20.70;35.97;102196.03;4989705;28;20312;-71
2021/09/30 11:37:12;;;;;;;2.80;0.50;;;;;;;20.77;36.06;102200.88;4982337;28;20042;-71
2021/09/30 11:39:38;;;;;;;2.83;0.80;;;;;;;20.81;35.37;102193.22;4986994;28;20050;-71
2021/09/30 11:42:05;;;;;;;4.07;0.90;;;;;;;20.89;35.36;102190.63;4992170;28;20589;-71
2021/09/30 11:44:32;;;;;;;4.60;0.90;;;;;;;20.93;35.40;102188.47;4986739;28;20073;-71
2021/09/30 11:47:00;;;;;;;1.92;0.70;;;;;;;21.01;35.77;102188.66;4989364;28;20109;-71
2021/09/30 11:49:39;;;;;;;3.10;0.73;;;;;;;21.07;34.91;102188.13;4989178;28;20406;-70
2021/09/30 11:52:11;;;;;;;3.50;0.88;;;;;;;21.14;34.88;102189.31;4995041;28;20046;-69
2021/09/30 11:54:38;;;;;;;1.85;0.85;;;;;;;21.15;35.50;102188.31;4976557;28;20386;-70
2021/09/30 11:57:05;;;;;;;2.58;0.90;;;;;;;21.21;34.63;102194.16;4990317;28;20485;-72
2021/09/30 11:59:32;;;;;;;3.65;0.95;;;;;;;21.23;34.41;102186.63;4988138;28;20391;-71
2021/09/30 12:02:04;;;;;;;3.42;0.85;;;;;;;21.27;34.03;102181.69;4990255;28;20288;-71
2021/09/30 12:04:50;;;;;;;2.75;0.70;;;;;;;21.25;34.27;102176.28;4989120;28;20500;-70
2021/09/30 12:07:21;;;;;;;2.80;0.80;;;;;;;21.23;34.17;102172.81;4992951;28;20051;-71
2021/09/30 12:09:49;;;;;;;2.83;0.90;;;;;;;21.23;34.64;102175.56;4954054;28;20058;-71
2021/09/30 12:12:17;;;;;;;2.30;0.73;;;;;;;21.22;34.46;102170.19;4990358;28;20548;-71
2021/09/30 12:14:48;;;;;;;2.05;0.60;;;;;;;21.22;34.10;102170.19;4989409;28;20101;-71
2021/09/30 12:17:17;;;;;;;2.58;0.68;;;;;;;21.16;34.74;102166.06;4990411;28;20049;-71
2021/09/30 12:19:49;;;;;;;2.55;0.80;;;;;;;21.18;34.14;102169.56;4990533;28;20070;-71
2021/09/30 12:22:19;;;;;;;1.70;0.60;;;;;;;21.14;33.78;102156.16;4972455;28;20078;-71
2021/09/30 12:24:50;;;;;;;2.50;0.80;;;;;;;21.12;33.80;102158.19;4989627;28;20092;-71
2021/09/30 12:27:18;;;;;;;2.67;0.70;;;;;;;21.06;34.03;102165.16;4972035;28;20077;-71
2021/09/30 12:29:54;;;;;;;2.08;0.80;;;;;;;21.08;32.72;102165.00;4964257;28;20058;-71
2021/09/30 12:32:27;;;;;;;2.40;0.55;;;;;;;21.03;33.65;102162.66;4972103;28;20050;-71
2021/09/30 12:34:56;;;;;;;3.58;1.00;;;;;;;21.00;33.33;102162.91;4990428;28;20050;-71
2021/09/30 12:37:27;;;;;;;2.17;0.80;;;;;;;20.98;33.15;102166.84;4971357;28;20046;-71
2021/09/30 12:40:18;;;;;;;1.92;0.80;;;;;;;20.96;33.24;102152.31;4969376;28;20046;-71
2021/09/30 12:43:02;;;;;;;2.95;0.90;;;;;;;20.91;32.86;102151.84;4975082;28;20113;-71
2021/09/30 12:45:32;;;;;;;2.53;0.68;;;;;;;20.88;33.75;102147.47;4989725;28;20061;-71
2021/09/30 12:48:07;;;;;;;1.70;0.70;;;;;;;20.88;33.56;102153.00;4988855;28;20049;-72
2021/09/30 12:50:50;;;;;;;2.00;0.77;;;;;;;20.85;33.75;102137.56;4974978;28;20093;-71
2021/09/30 12:53:20;;;;;;;2.17;0.70;;;;;;;20.82;34.13;102145.28;4991569;28;20449;-72
2021/09/30 12:55:48;;;;;;;2.65;0.80;;;;;;;20.82;33.97;102142.50;4989563;28;20069;-71
2021/09/30 12:58:37;;;;;;;4.40;1.00;;;;;;;20.83;33.88;102145.13;4988379;28;20511;-71
2021/09/30 13:01:25;;;;;;;2.15;0.80;;;;;;;20.83;34.07;102147.03;4984449;28;20073;-71
2021/09/30 13:04:12;;;;;;;3.10;0.88;;;;;;;20.82;33.71;102128.72;4983368;28;20050;-71
2021/09/30 13:07:01;;;;;;;2.95;0.80;;;;;;;20.80;33.48;102123.31;4972987;28;20051;-71
2021/09/30 13:09:38;;;;;;;1.10;0.70;;;;;;;20.85;34.12;102125.66;4988316;28;20050;-71
2021/09/30 13:12:10;;;;;;;1.73;0.57;;;;;;;20.82;34.14;102117.66;4957731;28;20054;-71
2021/09/30 13:14:53;;;;;;;4.00;0.77;;;;;;;20.81;33.45;102125.06;4972075;28;20050;-71
2021/09/30 13:17:23;;;;;;;2.35;0.90;;;;;;;20.77;34.43;102125.47;4990726;28;20046;-72
2021/09/30 13:20:07;;;;;;;1.85;0.70;;;;;;;20.83;33.85;102130.47;4975872;28;20050;-71
2021/09/30 13:22:41;;;;;;;1.88;0.82;;;;;;;20.81;34.19;102110.38;4990665;28;20054;-72
2021/09/30 13:25:15;;;;;;;2.72;0.70;;;;;;;20.81;34.15;102114.03;4992103;28;20485;-71
2021/09/30 13:27:43;;;;;;;1.52;0.80;;;;;;;20.83;34.20;102105.63;4991748;28;20153;-71
2021/09/30 13:30:13;;;;;;;2.85;0.80;;;;;;;20.83;33.78;102112.00;4991428;28;20112;-71
2021/09/30 13:32:41;;;;;;;3.00;0.60;;;;;;;20.82;34.10;102109.38;4974448;28;20050;-72
2021/09/30 13:35:10;;;;;;;1.33;0.75;;;;;;;20.82;34.21;102101.97;4991633;28;20054;-72
2021/09/30 13:37:37;;;;;;;2.47;0.70;;;;;;;20.81;34.02;102104.88;4990323;28;20046;-71
2021/09/30 13:40:07;;;;;;;3.00;1.00;;;;;;;20.83;34.03;102106.50;4994051;28;20050;-71
2021/09/30 13:42:35;;;;;;;2.65;0.65;;;;;;;20.82;34.57;102093.69;4987952;28;20050;-72
2021/09/30 13:45:13;;;;;;;1.90;0.75;;;;;;;20.85;33.97;102089.75;4998809;28;20050;-71
2021/09/30 13:47:40;;;;;;;2.78;0.80;;;;;;;20.84;34.34;102090.78;4975764;28;20112;-71
2021/09/30 13:50:11;;;;;;;2.38;0.68;;;;;;;20.85;34.13;102095.28;4994476;28;20121;-72
2021/09/30 13:52:38;;;;;;;1.77;0.60;;;;;;;20.82;34.16;102090.94;4996047;28;20488;-72
2021/09/30 13:55:06;;;;;;;1.75;0.80;;;;;;;20.81;33.84;102082.78;4983631;28;20058;-72
2021/09/30 13:57:34;;;;;;;1.60;0.80;;;;;;;20.80;34.28;102076.38;4991326;28;20707;-72
2021/09/30 14:00:06;;;;;;;1.58;0.60;;;;;;;20.81;33.47;102080.91;4992782;28;20065;-72
2021/09/30 14:02:44;;;;;;;1.35;0.82;;;;;;;20.79;34.42;102084.81;4992342;28;20056;-72
2021/09/30 14:05:13;;;;;;;3.03;0.82;;;;;;;20.79;33.92;102077.41;4975126;28;20058;-72
2021/09/30 14:07:41;;;;;;;1.92;0.75;;;;;;;20.77;33.90;102073.91;4991200;28;20046;-71
2021/09/30 14:10:11;;;;;;;2.78;0.63;;;;;;;20.78;33.68;102063.72;4990454;28;20065;-72
2021/09/30 14:12:38;;;;;;;3.58;0.95;;;;;;;20.75;33.90;102070.44;4975308;28;20047;-71
2021/09/30 14:15:08;;;;;;;2.53;1.10;;;;;;;20.75;34.00;102067.66;4992562;28;20112;-72
2021/09/30 14:17:35;;;;;;;3.97;0.98;;;;;;;20.73;33.68;102061.41;4974126;28;20046;-72
2021/09/30 14:20:04;;;;;;;1.88;0.70;;;;;;;20.75;34.29;102061.28;4993445;28;20425;-72
2021/09/30 14:22:30;;;;;;;2.45;0.70;;;;;;;20.71;33.82;102059.78;4992415;28;20046;-72
2021/09/30 14:24:57;;;;;;;1.73;0.60;;;;;;;20.69;33.76;102064.56;4989170;28;20042;-74
2021/09/30 14:27:27;;;;;;;2.15;0.70;;;;;;;20.66;33.63;102062.97;4985721;28;20046;-73
2021/09/30 14:29:53;;;;;;;2.47;0.65;;;;;;;20.62;33.96;102061.50;4983221;28;20054;-72
2021/09/30 14:32:20;;;;;;;2.08;0.68;;;;;;;20.61;34.09;102058.84;4989184;28;20386;-74
2021/09/30 14:34:47;;;;;;;2.38;0.70;;;;;;;20.57;34.14;102044.47;4991027;28;20046;-73